createdAt,value
2022-12-01T00:01:27.691Z,10.64
2022-12-01T00:03:55.593Z,10.66
2022-12-01T00:06:23.495Z,10.65
2022-12-01T00:09:12.935Z,10.63
2022-12-01T00:11:43.396Z,10.62
2022-12-01T00:14:11.625Z,10.59
2022-12-01T00:16:41.118Z,10.56
2022-12-01T00:19:09.161Z,10.60
2022-12-01T00:21:37.008Z,10.60
2022-12-01T00:24:05.176Z,10.56
2022-12-01T00:26:33.011Z,10.56
2022-12-01T00:29:01.053Z,10.58
2022-12-01T00:31:29.247Z,10.59
2022-12-01T00:33:58.613Z,10.60
2022-12-01T00:36:26.899Z,10.62
2022-12-01T00:38:55.952Z,10.67
2022-12-01T00:41:25.633Z,10.62
2022-12-01T00:43:53.626Z,10.64
2022-12-01T00:46:22.017Z,10.67
2022-12-01T00:48:50.186Z,10.67
2022-12-01T00:51:19.389Z,10.66
2022-12-01T00:53:47.281Z,10.63
2022-12-01T00:56:15.312Z,10.65
2022-12-01T00:58:43.512Z,10.67
2022-12-01T01:01:11.529Z,10.65
2022-12-01T01:03:39.683Z,10.62
2022-12-01T01:06:09.658Z,10.64
2022-12-01T01:08:39.534Z,10.65
2022-12-01T01:11:08.743Z,10.61
2022-12-01T01:13:37.953Z,10.60
2022-12-01T01:16:14.959Z,10.60
2022-12-01T01:18:43.336Z,10.58
2022-12-01T01:21:14.351Z,10.62
2022-12-01T01:23:44.736Z,10.61
2022-12-01T01:26:15.350Z,10.61
2022-12-01T01:28:45.749Z,10.61
2022-12-01T01:31:15.598Z,10.62
2022-12-01T01:33:44.149Z,10.60
2022-12-01T01:36:13.597Z,10.60
2022-12-01T01:38:44.280Z,10.64
2022-12-01T01:41:12.974Z,10.61
2022-12-01T01:43:47.691Z,10.62
2022-12-01T01:46:17.496Z,10.61
2022-12-01T01:48:49.085Z,10.58
2022-12-01T01:51:21.880Z,10.57
2022-12-01T01:53:55.194Z,10.60
2022-12-01T01:56:23.970Z,10.58
2022-12-01T01:58:53.412Z,10.56
2022-12-01T02:01:21.801Z,10.57
2022-12-01T02:03:53.354Z,10.55
2022-12-01T02:06:23.112Z,10.54
2022-12-01T02:08:52.463Z,10.54
2022-12-01T02:11:49.317Z,10.56
2022-12-01T02:14:41.270Z,10.60
2022-12-01T02:17:20.343Z,10.57
2022-12-01T02:20:23.463Z,10.61
2022-12-01T02:23:14.024Z,10.59
2022-12-01T02:25:51.585Z,10.58
2022-12-01T02:28:40.232Z,10.59
2022-12-01T02:31:16.356Z,10.58
2022-12-01T02:33:52.473Z,10.57
2022-12-01T02:36:26.868Z,10.56
2022-12-01T02:39:00.087Z,10.51
2022-12-01T02:41:33.726Z,10.52
2022-12-01T02:44:04.249Z,10.67
2022-12-01T02:46:37.710Z,10.49
2022-12-01T02:49:08.683Z,10.63
2022-12-01T02:51:39.466Z,10.50
2022-12-01T02:54:07.651Z,10.46
2022-12-01T02:56:35.587Z,10.52
2022-12-01T02:59:03.480Z,10.55
2022-12-01T03:01:45.109Z,10.55
2022-12-01T03:04:46.631Z,10.62
2022-12-01T03:07:40.557Z,10.60
2022-12-01T03:10:18.308Z,10.61
2022-12-01T03:13:00.371Z,10.61
2022-12-01T03:15:35.773Z,10.59
2022-12-01T03:18:20.120Z,10.64
2022-12-01T03:20:58.375Z,10.62
2022-12-01T03:23:29.903Z,10.62
2022-12-01T03:26:00.714Z,10.62
2022-12-01T03:28:32.118Z,10.57
2022-12-01T03:31:04.548Z,10.64
2022-12-01T03:33:37.771Z,10.62
2022-12-01T03:36:15.059Z,10.65
2022-12-01T03:38:44.909Z,10.67
2022-12-01T03:41:17.681Z,10.62
2022-12-01T03:43:52.712Z,10.57
2022-12-01T03:46:25.721Z,10.64
2022-12-01T03:48:55.265Z,10.60
2022-12-01T03:51:31.292Z,10.63
2022-12-01T03:54:07.964Z,10.61
2022-12-01T03:56:40.140Z,10.66
2022-12-01T03:59:11.120Z,10.60
2022-12-01T04:01:39.113Z,10.60
2022-12-01T04:04:11.497Z,10.57
2022-12-01T04:06:41.385Z,10.60
2022-12-01T04:09:09.374Z,10.62
2022-12-01T04:11:54.856Z,10.60
2022-12-01T04:14:23.111Z,10.64
2022-12-01T04:16:51.142Z,10.62
2022-12-01T04:19:21.462Z,10.54
2022-12-01T04:21:49.591Z,10.62
2022-12-01T04:24:18.004Z,10.58
2022-12-01T04:26:46.128Z,10.56
2022-12-01T04:29:14.549Z,10.56
2022-12-01T04:31:42.896Z,10.54
2022-12-01T04:34:11.115Z,10.60
2022-12-01T04:36:40.287Z,10.56
2022-12-01T04:39:08.158Z,10.56
2022-12-01T04:41:36.042Z,10.52
2022-12-01T04:44:04.209Z,10.57
2022-12-01T04:46:32.335Z,10.59
2022-12-01T04:49:00.263Z,10.60
2022-12-01T04:51:28.130Z,10.56
2022-12-01T04:53:57.340Z,10.55
2022-12-01T04:56:25.530Z,10.61
2022-12-01T04:58:53.383Z,10.63
2022-12-01T05:01:21.486Z,10.65
2022-12-01T05:03:50.432Z,10.61
2022-12-01T05:06:20.115Z,10.59
2022-12-01T05:08:48.774Z,10.60
2022-12-01T05:11:19.987Z,10.58
2022-12-01T05:13:49.543Z,10.52
2022-12-01T05:16:19.591Z,10.53
2022-12-01T05:18:50.232Z,10.55
2022-12-01T05:21:17.857Z,10.48
2022-12-01T05:23:45.724Z,10.45
2022-12-01T05:26:13.599Z,10.39
2022-12-01T05:28:43.088Z,10.39
2022-12-01T05:31:10.929Z,10.39
2022-12-01T05:33:39.135Z,10.29
2022-12-01T05:36:07.770Z,10.37
2022-12-01T05:38:35.655Z,10.27
2022-12-01T05:41:03.532Z,10.25
2022-12-01T05:43:31.532Z,10.19
2022-12-01T05:46:00.914Z,10.20
2022-12-01T05:48:28.886Z,10.16
2022-12-01T05:50:56.751Z,10.12
2022-12-01T05:53:24.614Z,10.04
2022-12-01T05:55:54.248Z,10.04
2022-12-01T05:58:22.198Z,10.02
2022-12-01T06:00:50.065Z,10.02
2022-12-01T06:03:19.385Z,9.90
2022-12-01T06:05:47.208Z,9.88
2022-12-01T06:08:15.459Z,9.92
2022-12-01T06:10:43.462Z,9.88
2022-12-01T06:13:11.687Z,9.88
2022-12-01T06:15:39.555Z,9.65
2022-12-01T06:18:07.813Z,9.76
2022-12-01T06:20:37.077Z,9.70
2022-12-01T06:23:05.050Z,9.76
2022-12-01T06:25:33.194Z,9.72
2022-12-01T06:28:02.424Z,9.71
2022-12-01T06:30:30.393Z,9.74
2022-12-01T06:32:58.310Z,9.70
2022-12-01T06:35:26.404Z,9.71
2022-12-01T06:37:55.680Z,9.71
2022-12-01T06:40:23.782Z,9.69
2022-12-01T06:42:51.632Z,9.70
2022-12-01T06:45:19.622Z,9.71
2022-12-01T06:47:48.471Z,9.65
2022-12-01T06:50:17.010Z,9.70
2022-12-01T06:52:44.972Z,9.72
2022-12-01T06:55:15.010Z,9.62
2022-12-01T06:57:44.028Z,9.63
2022-12-01T07:00:14.333Z,9.48
2022-12-01T07:02:42.647Z,9.46
2022-12-01T07:05:11.392Z,9.55
2022-12-01T07:07:39.975Z,9.49
2022-12-01T07:10:09.697Z,9.40
2022-12-01T07:12:39.575Z,9.51
2022-12-01T07:15:09.671Z,9.50
2022-12-01T07:17:38.102Z,9.50
2022-12-01T07:20:07.492Z,9.47
2022-12-01T07:22:36.189Z,9.47
2022-12-01T07:25:04.335Z,9.37
2022-12-01T07:27:32.411Z,9.47
2022-12-01T07:30:02.653Z,9.49
2022-12-01T07:32:31.237Z,9.50
2022-12-01T07:34:59.255Z,9.41
2022-12-01T07:37:27.145Z,9.44
2022-12-01T07:39:55.045Z,9.43
2022-12-01T07:42:22.911Z,9.43
2022-12-01T07:44:50.953Z,9.38
2022-12-01T07:47:20.214Z,9.42
2022-12-01T07:49:48.454Z,9.45
2022-12-01T07:52:16.471Z,9.24
2022-12-01T07:54:44.406Z,9.32
2022-12-01T07:57:14.399Z,9.33
2022-12-01T07:59:42.533Z,9.38
2022-12-01T08:02:11.213Z,9.39
2022-12-01T08:04:40.735Z,9.40
2022-12-01T08:07:08.807Z,9.40
2022-12-01T08:09:37.223Z,9.36
2022-12-01T08:12:05.725Z,9.35
2022-12-01T08:14:33.759Z,9.39
2022-12-01T08:17:01.662Z,9.39
2022-12-01T08:19:29.735Z,9.41
2022-12-01T08:21:58.903Z,9.41
2022-12-01T08:24:26.784Z,9.40
2022-12-01T08:26:54.599Z,9.38
2022-12-01T08:29:22.854Z,9.43
2022-12-01T08:31:50.811Z,9.45
2022-12-01T08:34:18.896Z,9.44
2022-12-01T08:36:46.937Z,9.50
2022-12-01T08:39:16.274Z,9.49
2022-12-01T08:41:44.341Z,9.51
2022-12-01T08:44:12.370Z,9.51
2022-12-01T08:46:40.502Z,9.56
2022-12-01T08:49:08.419Z,9.50
2022-12-01T08:51:37.263Z,9.45
2022-12-01T08:54:06.071Z,9.39
2022-12-01T08:56:37.173Z,9.46
2022-12-01T08:59:05.933Z,9.49
2022-12-01T09:01:34.956Z,9.52
2022-12-01T09:04:08.945Z,9.57
2022-12-01T09:06:40.854Z,9.60
2022-12-01T09:09:09.448Z,9.66
2022-12-01T09:11:39.325Z,9.69
2022-12-01T09:14:07.427Z,9.69
2022-12-01T09:16:35.694Z,9.72
2022-12-01T09:19:03.827Z,9.77
2022-12-01T09:21:33.405Z,9.81
2022-12-01T09:24:02.857Z,9.83
2022-12-01T09:26:31.177Z,9.87
2022-12-01T09:29:02.672Z,9.88
2022-12-01T09:31:30.991Z,9.89
2022-12-01T09:34:01.659Z,9.90
2022-12-01T09:36:30.434Z,9.93
2022-12-01T09:38:58.472Z,9.92
2022-12-01T09:41:29.048Z,9.95
2022-12-01T09:44:05.643Z,10.02
2022-12-01T09:46:38.371Z,10.04
2022-12-01T09:49:13.052Z,10.09
2022-12-01T09:51:40.894Z,10.13
2022-12-01T09:54:13.531Z,10.13
2022-12-01T09:56:45.291Z,10.14
2022-12-01T09:59:20.636Z,10.18
2022-12-01T10:01:53.787Z,10.18
2022-12-01T10:04:26.938Z,10.20
2022-12-01T10:07:00.326Z,10.22
2022-12-01T10:09:33.375Z,10.25
2022-12-01T10:12:10.024Z,10.28
2022-12-01T10:14:39.366Z,10.32
2022-12-01T10:17:24.498Z,10.34
2022-12-01T10:19:58.824Z,10.40
2022-12-01T10:22:57.508Z,10.49
2022-12-01T10:25:27.568Z,10.46
2022-12-01T10:28:28.337Z,10.51
2022-12-01T10:31:04.409Z,10.48
2022-12-01T10:33:36.866Z,10.49
2022-12-01T10:36:05.200Z,10.51
2022-12-01T10:38:36.513Z,10.53
2022-12-01T10:41:08.110Z,10.51
2022-12-01T10:43:45.116Z,10.56
2022-12-01T10:46:24.492Z,10.57
2022-12-01T10:48:57.743Z,10.59
2022-12-01T10:51:26.791Z,10.58
2022-12-01T10:54:01.112Z,10.61
2022-12-01T10:56:29.458Z,10.61
2022-12-01T10:59:00.747Z,10.63
2022-12-01T11:01:35.596Z,10.66
2022-12-01T11:04:08.033Z,10.64
2022-12-01T11:06:36.839Z,10.66
2022-12-01T11:09:07.760Z,10.71
2022-12-01T11:11:38.636Z,10.76
2022-12-01T11:14:17.304Z,10.76
2022-12-01T11:16:48.982Z,10.72
2022-12-01T11:19:27.278Z,10.83
2022-12-01T11:21:57.911Z,10.77
2022-12-01T11:24:33.737Z,10.89
2022-12-01T11:27:02.231Z,10.94
2022-12-01T11:29:37.117Z,10.91
2022-12-01T11:32:18.396Z,11.02
2022-12-01T11:34:53.231Z,11.04
2022-12-01T11:37:24.093Z,11.08
2022-12-01T11:39:53.250Z,11.16
2022-12-01T11:42:27.815Z,11.22
2022-12-01T11:45:01.615Z,11.20
2022-12-01T11:47:30.952Z,11.16
2022-12-01T11:50:01.062Z,11.23
2022-12-01T11:52:32.233Z,11.27
2022-12-01T11:55:08.401Z,11.31
2022-12-01T11:57:39.976Z,11.36
2022-12-01T12:00:14.918Z,11.35
2022-12-01T12:02:57.631Z,11.35
2022-12-01T12:06:11.717Z,11.46
2022-12-01T12:09:01.775Z,11.49
2022-12-01T12:11:40.332Z,11.36
2022-12-01T12:14:22.835Z,11.39
2022-12-01T12:17:08.597Z,11.38
2022-12-01T12:20:09.789Z,11.37
2022-12-01T12:22:55.426Z,11.40
2022-12-01T12:25:31.646Z,11.35
2022-12-01T12:28:13.172Z,11.40
2022-12-01T12:30:50.725Z,11.43
2022-12-01T12:33:40.494Z,11.48
2022-12-01T12:36:19.813Z,11.43
2022-12-01T12:39:03.619Z,11.43
2022-12-01T12:41:36.532Z,11.63
2022-12-01T12:44:38.984Z,11.52
2022-12-01T12:47:19.283Z,11.49
2022-12-01T12:49:55.078Z,11.46
2022-12-01T12:52:29.743Z,11.52
2022-12-01T12:55:01.344Z,11.54
2022-12-01T12:57:34.061Z,11.40
2022-12-01T13:00:06.721Z,11.49
2022-12-01T13:02:40.692Z,11.48
2022-12-01T13:05:16.284Z,11.41
2022-12-01T13:07:51.083Z,11.39
2022-12-01T13:10:29.431Z,11.33
2022-12-01T13:13:02.688Z,11.35
2022-12-01T13:15:32.260Z,11.26
2022-12-01T13:18:05.622Z,11.25
2022-12-01T13:20:37.652Z,11.20
2022-12-01T13:23:09.940Z,11.15
2022-12-01T13:25:40.628Z,10.99
2022-12-01T13:28:18.396Z,11.05
2022-12-01T13:31:00.909Z,11.02
2022-12-01T13:33:29.774Z,10.98
2022-12-01T13:36:29.991Z,10.99
2022-12-01T13:38:58.229Z,10.97
2022-12-01T13:41:29.433Z,10.90
2022-12-01T13:44:03.719Z,10.94
2022-12-01T13:46:34.190Z,10.88
2022-12-01T13:49:04.274Z,10.81
2022-12-01T13:52:05.208Z,10.84
2022-12-01T13:54:37.240Z,10.81
2022-12-01T13:57:11.698Z,10.66
2022-12-01T13:59:42.106Z,10.63
2022-12-01T14:02:22.350Z,10.66
2022-12-01T14:04:50.796Z,10.67
2022-12-01T14:07:34.815Z,10.72
2022-12-01T14:10:15.075Z,10.86
2022-12-01T14:12:46.545Z,10.68
2022-12-01T14:15:43.743Z,10.72
2022-12-01T14:18:36.847Z,10.74
2022-12-01T14:21:07.677Z,10.66
2022-12-01T14:23:37.490Z,10.66
2022-12-01T14:26:14.713Z,10.66
2022-12-01T14:29:18.340Z,10.69
2022-12-01T14:32:25.978Z,10.72
2022-12-01T14:34:57.017Z,10.69
2022-12-01T14:37:30.267Z,10.69
2022-12-01T14:40:05.152Z,10.69
2022-12-01T14:42:55.603Z,10.67
2022-12-01T14:45:27.976Z,10.65
2022-12-01T14:48:02.312Z,10.71
2022-12-01T14:50:42.101Z,10.68
2022-12-01T14:53:24.858Z,10.68
2022-12-01T14:55:57.276Z,10.66
2022-12-01T14:58:29.390Z,10.61
2022-12-01T15:01:03.552Z,10.61
2022-12-01T15:03:37.242Z,10.64
2022-12-01T15:06:05.265Z,10.79
2022-12-01T15:08:53.333Z,10.62
2022-12-01T15:11:26.779Z,10.61
2022-12-01T15:13:57.847Z,10.61
2022-12-01T15:16:29.451Z,10.62
2022-12-01T15:18:57.783Z,10.65
2022-12-01T15:21:28.200Z,10.66
2022-12-01T15:23:59.442Z,10.64
2022-12-01T15:26:31.677Z,10.62
2022-12-01T15:29:15.623Z,10.63
2022-12-01T15:31:45.515Z,10.59
2022-12-01T15:34:16.687Z,10.63
2022-12-01T15:36:45.090Z,10.62
2022-12-01T15:39:16.617Z,10.54
2022-12-01T15:41:47.320Z,10.54
2022-12-01T15:44:22.837Z,10.56
2022-12-01T15:46:50.911Z,10.55
2022-12-01T15:49:21.004Z,10.56
2022-12-01T15:51:51.112Z,10.59
2022-12-01T15:54:22.213Z,10.60
2022-12-01T15:56:54.850Z,10.59
2022-12-01T15:59:30.927Z,10.62
2022-12-01T16:01:59.599Z,10.59
2022-12-01T16:04:32.163Z,10.58
2022-12-01T16:07:03.559Z,10.60
2022-12-01T16:09:35.692Z,10.61
2022-12-01T16:12:05.233Z,10.60
2022-12-01T16:14:35.740Z,10.62
2022-12-01T16:17:04.890Z,10.62
2022-12-01T16:19:34.234Z,10.53
2022-12-01T16:22:13.175Z,10.51
2022-12-01T16:24:46.501Z,10.53
2022-12-01T16:27:23.911Z,10.50
2022-12-01T16:29:56.201Z,10.47
2022-12-01T16:32:34.599Z,10.42
2022-12-01T16:35:04.459Z,10.41
2022-12-01T16:37:32.760Z,10.36
2022-12-01T16:40:00.700Z,10.38
2022-12-01T16:42:28.611Z,10.31
2022-12-01T16:44:57.857Z,10.35
2022-12-01T16:47:26.769Z,10.37
2022-12-01T16:49:54.795Z,10.31
2022-12-01T16:52:43.812Z,10.29
2022-12-01T16:55:33.220Z,10.39
2022-12-01T16:58:01.116Z,10.29
2022-12-01T17:00:30.494Z,10.27
2022-12-01T17:02:59.282Z,10.32
2022-12-01T17:05:27.570Z,10.26
2022-12-01T17:07:55.670Z,10.25
2022-12-01T17:10:24.054Z,10.23
2022-12-01T17:12:52.608Z,10.22
2022-12-01T17:15:21.928Z,10.23
2022-12-01T17:17:53.122Z,10.20
2022-12-01T17:20:23.719Z,10.21
2022-12-01T17:22:53.324Z,10.13
2022-12-01T17:25:21.920Z,10.11
2022-12-01T17:27:51.574Z,10.13
2022-12-01T17:30:22.076Z,10.13
2022-12-01T17:32:52.613Z,10.15
2022-12-01T17:35:22.360Z,10.09
2022-12-01T17:37:50.997Z,10.15
2022-12-01T17:40:20.461Z,10.12
2022-12-01T17:42:52.720Z,10.12
2022-12-01T17:45:21.511Z,10.03
2022-12-01T17:47:51.960Z,10.04
2022-12-01T17:50:20.694Z,10.10
2022-12-01T17:52:48.890Z,10.07
2022-12-01T17:55:18.063Z,10.09
2022-12-01T17:57:47.251Z,10.15
2022-12-01T18:00:16.965Z,10.11
2022-12-01T18:02:47.897Z,10.11
2022-12-01T18:05:19.550Z,10.08
2022-12-01T18:07:50.862Z,10.08
2022-12-01T18:10:19.949Z,10.08
2022-12-01T18:12:48.526Z,10.13
2022-12-01T18:15:17.738Z,10.07
2022-12-01T18:17:48.575Z,10.06
2022-12-01T18:20:22.013Z,10.03
2022-12-01T18:22:50.770Z,10.06
2022-12-01T18:25:20.479Z,10.05
2022-12-01T18:27:51.380Z,10.05
2022-12-01T18:30:20.007Z,10.08
2022-12-01T18:32:48.095Z,10.10
2022-12-01T18:35:16.027Z,10.10
2022-12-01T18:37:45.313Z,10.07
2022-12-01T18:40:14.448Z,10.04
2022-12-01T18:42:42.542Z,10.00
2022-12-01T18:45:12.756Z,10.00
2022-12-01T18:47:42.267Z,10.03
2022-12-01T18:50:10.890Z,10.00
2022-12-01T18:52:38.740Z,9.96
2022-12-01T18:55:09.014Z,9.92
2022-12-01T18:57:36.928Z,9.91
2022-12-01T19:00:07.511Z,9.90
2022-12-01T19:02:35.788Z,9.86
2022-12-01T19:05:05.517Z,9.84
2022-12-01T19:07:34.305Z,9.79
2022-12-01T19:10:04.894Z,9.80
2022-12-01T19:12:40.652Z,9.84
2022-12-01T19:15:10.443Z,9.83
2022-12-01T19:17:38.574Z,9.85
2022-12-01T19:20:08.623Z,9.88
2022-12-01T19:22:37.694Z,9.85
2022-12-01T19:25:06.490Z,9.83
2022-12-01T19:27:37.032Z,9.84
2022-12-01T19:30:08.069Z,9.80
2022-12-01T19:32:54.547Z,9.79
2022-12-01T19:35:23.560Z,9.79
2022-12-01T19:37:52.306Z,9.72
2022-12-01T19:40:23.153Z,9.70
2022-12-01T19:42:52.971Z,9.74
2022-12-01T19:45:21.059Z,9.77
2022-12-01T19:47:51.223Z,9.77
2022-12-01T19:50:19.520Z,9.75
2022-12-01T19:52:47.469Z,9.71
2022-12-01T19:55:27.504Z,9.71
2022-12-01T19:58:19.019Z,9.73
2022-12-01T20:01:40.253Z,9.77
2022-12-01T20:04:14.597Z,9.72
2022-12-01T20:07:03.151Z,9.73
2022-12-01T20:09:53.233Z,9.77
2022-12-01T20:12:21.868Z,9.79
2022-12-01T20:15:17.325Z,9.81
2022-12-01T20:18:05.732Z,9.73
2022-12-01T20:20:38.035Z,9.72
2022-12-01T20:23:07.467Z,9.67
2022-12-01T20:25:38.843Z,9.63
2022-12-01T20:28:07.297Z,9.52
2022-12-01T20:30:41.112Z,9.62
2022-12-01T20:33:09.804Z,9.61
2022-12-01T20:35:37.900Z,9.62
2022-12-01T20:38:06.204Z,9.59
2022-12-01T20:40:34.089Z,9.55
2022-12-01T20:43:02.125Z,9.59
2022-12-01T20:45:30.120Z,9.61
2022-12-01T20:47:59.790Z,9.60
2022-12-01T20:50:29.767Z,9.61
2022-12-01T20:52:58.468Z,9.61
2022-12-01T20:55:27.175Z,9.58
2022-12-01T20:57:55.825Z,9.55
2022-12-01T21:00:24.049Z,9.54
2022-12-01T21:02:52.326Z,9.52
2022-12-01T21:05:22.083Z,9.49
2022-12-01T21:07:50.561Z,9.49
2022-12-01T21:10:20.373Z,9.49
2022-12-01T21:13:09.662Z,9.48
2022-12-01T21:15:51.157Z,9.51
2022-12-01T21:18:23.314Z,9.45
2022-12-01T21:20:56.266Z,9.48
2022-12-01T21:23:27.736Z,9.51
2022-12-01T21:25:56.911Z,9.45
2022-12-01T21:28:26.437Z,9.44
2022-12-01T21:31:04.185Z,9.47
2022-12-01T21:33:33.863Z,9.46
2022-12-01T21:36:07.342Z,9.41
2022-12-01T21:38:35.588Z,9.39
2022-12-01T21:41:04.227Z,9.39
2022-12-01T21:43:38.085Z,9.38
2022-12-01T21:46:14.671Z,9.39
2022-12-01T21:48:43.321Z,9.29
2022-12-01T21:51:19.372Z,9.32
2022-12-01T21:53:48.678Z,9.32
2022-12-01T21:56:22.730Z,9.28
2022-12-01T21:58:51.111Z,9.27
2022-12-01T22:01:24.277Z,9.26
2022-12-01T22:03:52.474Z,9.25
2022-12-01T22:06:30.175Z,9.20
2022-12-01T22:09:02.330Z,9.17
2022-12-01T22:11:31.659Z,9.18
2022-12-01T22:14:15.508Z,9.12
2022-12-01T22:16:45.166Z,9.13
2022-12-01T22:19:27.488Z,9.19
2022-12-01T22:22:44.240Z,9.12
2022-12-01T22:25:39.206Z,9.07
2022-12-01T22:28:26.835Z,9.01
2022-12-01T22:30:59.522Z,8.97
2022-12-01T22:33:34.403Z,8.92
2022-12-01T22:36:02.465Z,8.87
2022-12-01T22:38:35.465Z,8.88
2022-12-01T22:41:07.508Z,8.92
2022-12-01T22:44:02.887Z,8.84
2022-12-01T22:46:43.912Z,8.84
2022-12-01T22:49:19.543Z,8.80
2022-12-01T22:51:49.546Z,8.77
2022-12-01T22:54:37.688Z,8.68
2022-12-01T22:57:31.334Z,8.74
2022-12-01T23:00:17.067Z,8.71
2022-12-01T23:02:45.146Z,8.74
2022-12-01T23:05:22.630Z,8.83
2022-12-01T23:07:52.253Z,8.88
2022-12-01T23:10:22.890Z,8.90
2022-12-01T23:12:54.688Z,8.88
2022-12-01T23:15:32.158Z,8.87
2022-12-01T23:18:07.313Z,8.88
2022-12-01T23:20:35.984Z,8.84
2022-12-01T23:23:09.300Z,8.84
2022-12-01T23:25:37.135Z,8.84
2022-12-01T23:28:08.822Z,8.75
2022-12-01T23:30:38.195Z,8.58
2022-12-01T23:33:21.032Z,8.74
2022-12-01T23:35:54.886Z,8.75
2022-12-01T23:38:24.559Z,8.78
2022-12-01T23:40:54.197Z,8.73
2022-12-01T23:43:26.225Z,8.73
2022-12-01T23:46:03.542Z,8.74
2022-12-01T23:48:35.629Z,8.74
2022-12-01T23:51:03.937Z,8.77
2022-12-01T23:53:35.333Z,8.74
2022-12-01T23:56:10.768Z,8.77
2022-12-01T23:58:40.114Z,8.78
